Details From SBUL - TEN CEL AV CESAR BOMBONATO
To SBGO - Santo Genoveva
Flight Number -
Tags decoded
Created
Modified
Stats Distance 147 nm / 272 km
Max Altitude 0 ft / 0 m
Waypoints 2
Social Downloads 2
Likes 0
Share VATSIM

Download

Looking for another format? Having issues loading an existing format? Contact us
Advertisement - Login to hide

Notes

Requested: SBUL CAL SBGO

Route

SBUL SBGO

ID Type Via Altitude (ft/m) Position (lat/lon) Dist (leg/tot) Name
O SBUL APT - 0 / 0 -18.88284 / -48.22559 - / 0 nm TEN CEL AV CESAR BOMBONATO
O SBGO APT - 0 / 0 -16.63203 / -49.22069 146 / 146 nm Santo Genoveva

Altitude Profile

Advertisement - Login to hide

SBUL

Details ICAO SBUL (UDI)
Name Uberlandia Airport Ten Cel AV Cesar Bombonato
Region Brazil
Timezone America/Sao_Paulo (UTC-3.0)
Stats Elevation 3,094 ft / 943 m (AMSL)
Location -18.883500° -48.225900°
Runways 1
Magnetic Variation 21.401° W

METAR

SBUL 201500Z 33006KT 9999 SCT020 28/19 Q1018

Decode

TAF

TAF SBUL 201015Z 2012/2024 01005KT 9999 FEW008TX28/2017Z TN20/2024Z BECMG 2013/2015 35010KT SCT030 PROB40 2017/2023 TSRA BKN030 FEW045CB RMK PGN

Decode

Departure Runways

ID Width Length Bearing (true/mag) Surface Threshold Overrun Markings Lighting
04 148 ft / 45 m 6,920 ft / 2,109 m 22.57° / 43.98° ASPHALT 0 ft / 0 m 0 ft / 0 m PREC-APP EDGE THRESHOLD
22 148 ft / 45 m 6,920 ft / 2,109 m 202.57° / 223.97° ASPHALT 0 ft / 0 m 0 ft / 0 m PREC-APP EDGE THRESHOLD

SBGO

Details ICAO SBGO (GYN)
Name Santa Genoveva Intl
Region Brazil
Timezone America/Sao_Paulo (UTC-3.0)
Stats Elevation 2,451 ft / 747 m (AMSL)
Location -16.631900° -49.221100°
Runways 1
Magnetic Variation 21.128° W

METAR

SBGO 201500Z 32009KT 290V360 9999 SCT045 FEW050TCU BKN080 30/21 Q1016

Decode

TAF

TAF SBGO 201000Z 2012/2112 33005KT 9999 FEW030 TX30/2016Z TN20/2106Z BECMG 2014/2016 27006KT PROB40 TEMPO 2017/2021 TS VCSH SCT028 FEW035CB BECMG 2021/2023 SCT030 RMK PDS

Decode

Destination Runways

ID Width Length Bearing (true/mag) Surface Threshold Overrun Markings Lighting
14 148 ft / 45 m 8,208 ft / 2,502 m 120.42° / 141.54° ASPHALT 715 ft / 218 m 0 ft / 0 m PREC-APP CENTERLINE EDGE THRESHOLD REIL-OMNI
32 148 ft / 45 m 8,208 ft / 2,502 m 300.41° / 321.54° ASPHALT 0 ft / 0 m 0 ft / 0 m PREC-APP CENTERLINE EDGE THRESHOLD REIL-OMNI

Popular Alternatives